Time;durP1;ratioP1;P1;durP2;ratioP2;P2;SDS_P1;SDS_P2;PMS_P1;PMS_P2;Temp;Humidity;BMP_temperature;BMP_pressure;BME280_temperature;BME280_humidity;BME280_pressure;Samples;Min_cycle;Max_cycle;Signal;HPM_P1;HPM_P2
2022/03/03 00:00:54;;;;;;;;;73.25;56.75;;;;;11.02;55.13;101478.56;5075231;28;54440;-79
2022/03/03 00:03:19;;;;;;;;;77.25;57.50;;;;;11.00;55.35;101474.09;5076480;27;46725;-80
2022/03/03 00:05:44;;;;;;;;;74.50;57.50;;;;;11.04;55.33;101480.34;5091462;27;58004;-80
2022/03/03 00:08:10;;;;;;;;;72.00;56.25;;;;;11.05;55.26;101476.84;5075339;28;45274;-80
2022/03/03 00:10:35;;;;;;;;;75.25;57.25;;;;;11.03;55.31;101471.53;5075566;27;53184;-80
2022/03/03 00:13:01;;;;;;;;;76.50;57.00;;;;;11.03;55.35;101463.59;5075978;27;46396;-81
2022/03/03 00:15:26;;;;;;;;;78.25;57.75;;;;;11.03;55.27;101466.25;5076440;27;45544;-80
2022/03/03 00:17:51;;;;;;;;;79.00;58.25;;;;;11.03;55.45;101466.25;5076070;27;52069;-80
2022/03/03 00:20:17;;;;;;;;;79.00;59.00;;;;;10.96;55.47;101462.56;5075381;28;55714;-80
2022/03/03 00:22:43;;;;;;;;;84.75;60.25;;;;;11.03;55.78;101474.19;5074553;28;47274;-80
2022/03/03 00:25:09;;;;;;;;;73.50;56.00;;;;;11.03;55.71;101474.19;5074619;28;46351;-80
2022/03/03 00:27:34;;;;;;;;;77.25;58.50;;;;;11.02;55.69;101475.94;5077655;27;55011;-80
2022/03/03 00:30:00;;;;;;;;;75.00;58.50;;;;;10.97;55.86;101460.81;5077707;28;45759;-79
2022/03/03 00:32:25;;;;;;;;;73.50;55.25;;;;;10.96;55.48;101470.50;5073284;27;60811;-78
2022/03/03 00:34:50;;;;;;;;;78.50;56.25;;;;;11.00;55.94;101480.28;5074277;28;45526;-79
2022/03/03 00:37:17;;;;;;;;;77.75;59.25;;;;;10.97;55.81;101477.59;5075376;28;45818;-78
2022/03/03 00:39:43;;;;;;;;;76.25;58.25;;;;;10.97;56.00;101477.59;5075068;28;45349;-78
2022/03/03 00:42:08;;;;;;;;;75.50;57.00;;;;;10.97;56.01;101480.25;5075307;28;45607;-79
2022/03/03 00:44:39;;;;;;;;;78.50;58.50;;;;;10.89;55.86;101468.63;5076004;27;45402;-77
2022/03/03 00:47:04;;;;;;;;;74.00;56.00;;;;;10.94;55.89;101480.16;5073711;28;45350;-78
2022/03/03 00:49:30;;;;;;;;;81.25;57.50;;;;;10.93;56.14;101480.16;5076393;27;45459;-78
2022/03/03 00:51:55;;;;;;;;;75.50;58.75;;;;;10.90;56.03;101486.25;5075260;27;61022;-78
2022/03/03 00:54:20;;;;;;;;;75.25;57.25;;;;;10.85;55.98;101482.63;5074610;28;61721;-79
2022/03/03 00:56:46;;;;;;;;;78.25;60.00;;;;;10.86;56.17;101481.75;5057039;28;54499;-77
2022/03/03 00:59:12;;;;;;;;;76.25;56.00;;;;;10.85;56.32;101479.97;5074809;27;45630;-78
2022/03/03 01:01:37;;;;;;;;;79.50;58.25;;;;;10.84;56.13;101480.84;5078343;27;61273;-79
2022/03/03 01:04:02;;;;;;;;;77.00;59.50;;;;;10.82;56.40;101476.41;5078362;28;45580;-78
2022/03/03 01:06:28;;;;;;;;;75.25;58.25;;;;;10.79;56.73;101471.94;5078188;27;56985;-78
2022/03/03 01:08:53;;;;;;;;;79.25;59.75;;;;;10.77;56.51;101476.31;5079116;27;49123;-78
2022/03/03 01:11:18;;;;;;;;;76.50;57.00;;;;;10.76;56.62;101479.81;5078519;27;64447;-78
2022/03/03 01:13:44;;;;;;;;;83.00;59.25;;;;;10.72;56.46;101481.47;5078978;28;53771;-78
2022/03/03 01:16:09;;;;;;;;;78.25;59.50;;;;;10.72;56.90;101478.84;5079108;28;55392;-78
2022/03/03 01:18:35;;;;;;;;;78.25;57.00;;;;;10.71;56.80;101476.19;5078846;27;54676;-78
2022/03/03 01:21:00;;;;;;;;;77.00;59.50;;;;;10.65;56.84;101471.66;5078998;27;59829;-78
2022/03/03 01:23:30;;;;;;;;;80.50;57.00;;;;;10.68;56.72;101479.63;5078266;27;45449;-78
2022/03/03 01:25:56;;;;;;;;;79.75;60.50;;;;;10.67;56.87;101471.69;5072316;28;45361;-78
2022/03/03 01:28:21;;;;;;;;;79.50;57.75;;;;;10.65;56.81;101471.66;5079390;27;45233;-78
2022/03/03 01:30:47;;;;;;;;;79.75;57.25;;;;;10.63;57.08;101465.44;5078486;27;45325;-79
2022/03/03 01:33:12;;;;;;;;;79.50;61.25;;;;;10.64;57.16;101468.97;5078699;28;45160;-78
2022/03/03 01:35:39;;;;;;;;;75.00;56.25;;;;;10.60;57.03;101464.47;5074673;28;45446;-77
2022/03/03 01:38:05;;;;;;;;;81.00;60.75;;;;;10.57;56.99;101467.06;5078786;28;45507;-78
2022/03/03 01:40:30;;;;;;;;;76.75;57.00;;;;;10.59;57.08;101465.34;5078894;27;58187;-77
2022/03/03 01:42:56;;;;;;;;;84.75;61.00;;;;;10.56;57.29;101455.63;5077424;28;60882;-78
2022/03/03 01:45:21;;;;;;;;;79.25;58.25;;;;;10.61;57.13;101455.72;5078270;27;55336;-78
2022/03/03 01:47:46;;;;;;;;;81.50;62.00;;;;;10.54;57.46;101448.50;5077785;27;56210;-78
2022/03/03 01:50:12;;;;;;;;;76.75;58.00;;;;;10.52;57.52;101445.84;5077603;28;45408;-78
2022/03/03 01:52:37;;;;;;;;;80.75;59.50;;;;;10.57;57.65;101449.47;5077304;28;55942;-78
2022/03/03 01:55:05;;;;;;;;;84.50;60.75;;;;;10.58;57.53;101450.34;5078287;27;45807;-79
2022/03/03 01:57:31;;;;;;;;;82.25;61.75;;;;;10.53;57.63;101434.41;5078829;28;45474;-79
2022/03/03 01:59:58;;;;;;;;;77.75;58.00;;;;;10.63;57.40;101449.59;5076935;28;52784;-78
2022/03/03 02:02:23;;;;;;;;;76.75;59.25;;;;;10.68;57.44;101458.50;5094714;27;45421;-78
2022/03/03 02:04:50;;;;;;;;;79.75;59.75;;;;;10.74;57.81;101452.44;5076044;28;45455;-78
2022/03/03 02:07:15;;;;;;;;;76.00;56.75;;;;;10.80;57.67;101456.97;5077939;27;45675;-78
2022/03/03 02:09:41;;;;;;;;;81.75;58.25;;;;;10.84;57.73;101449.13;5077602;28;64167;-78
2022/03/03 02:12:07;;;;;;;;;80.00;57.50;;;;;10.91;57.69;101451.03;5059770;28;45514;-78
2022/03/03 02:14:40;;;;;;;;;71.25;55.50;;;;;10.96;57.63;101453.75;5056867;28;45359;-79
2022/03/03 02:17:08;;;;;;;;;85.00;62.00;;;;;11.04;57.74;101456.56;5078564;28;45525;-78
2022/03/03 02:19:33;;;;;;;;;78.25;59.00;;;;;11.08;57.85;101454.03;5069366;28;48951;-78
2022/03/03 02:21:58;;;;;;;;;81.00;61.00;;;;;11.13;57.54;101454.06;5076271;28;51174;-78
2022/03/03 02:24:24;;;;;;;;;83.25;61.00;;;;;11.17;57.76;101445.34;5077226;27;57363;-78
2022/03/03 02:26:49;;;;;;;;;75.50;58.75;;;;;11.19;57.75;101447.19;5077748;27;54724;-78
2022/03/03 02:29:16;;;;;;;;;79.00;56.00;;;;;11.24;57.81;101444.63;5078076;27;48276;-78
2022/03/03 02:31:44;;;;;;;;;79.25;59.00;;;;;11.27;57.47;101442.00;5069347;28;45527;-80
2022/03/03 02:34:10;;;;;;;;;78.50;60.50;;;;;11.30;57.62;101431.50;5076704;28;45409;-78
2022/03/03 02:36:35;;;;;;;;;79.00;59.00;;;;;11.33;57.72;101431.53;5078096;27;45358;-77
2022/03/03 02:39:03;;;;;;;;;77.75;59.50;;;;;11.35;57.59;101434.25;5078004;27;46213;-78
2022/03/03 02:41:29;;;;;;;;;75.00;59.00;;;;;11.35;57.50;101426.31;5077453;28;45430;-78
2022/03/03 02:43:56;;;;;;;;;85.25;60.75;;;;;11.41;57.64;101426.41;5077553;27;45495;-78
2022/03/03 02:46:21;;;;;;;;;80.00;58.50;;;;;11.45;57.74;101431.78;5077555;27;45491;-78
2022/03/03 02:48:47;;;;;;;;;80.50;60.25;;;;;11.46;57.82;101425.63;5076000;28;47253;-78
2022/03/03 02:51:12;;;;;;;;;74.50;56.75;;;;;11.49;57.50;101422.13;5077939;27;45385;-79
2022/03/03 02:53:39;;;;;;;;;76.25;59.00;;;;;11.52;57.51;101415.13;5076091;28;49169;-78
2022/03/03 02:56:04;;;;;;;;;78.50;57.25;;;;;11.55;57.75;101416.94;5078157;28;45528;-80
2022/03/03 02:58:30;;;;;;;;;80.00;57.75;;;;;11.52;57.54;101398.38;5076648;28;46554;-78
2022/03/03 03:00:55;;;;;;;;;76.00;58.25;;;;;11.59;57.68;101413.47;5077068;27;45519;-78
2022/03/03 03:03:21;;;;;;;;;73.75;57.75;;;;;11.62;57.54;101410.00;5075327;28;46060;-79
2022/03/03 03:05:48;;;;;;;;;79.75;59.50;;;;;11.62;57.59;101396.78;5092670;27;56806;-79
2022/03/03 03:08:15;;;;;;;;;76.00;57.75;;;;;11.65;57.63;101397.69;5077074;28;56651;-78
2022/03/03 03:10:41;;;;;;;;;76.00;56.75;;;;;11.66;57.51;101395.94;5077923;27;45291;-79
2022/03/03 03:13:07;;;;;;;;;76.00;58.25;;;;;11.68;57.69;101395.13;5076533;27;54817;-78
2022/03/03 03:15:33;;;;;;;;;77.50;59.00;;;;;11.69;57.80;101385.41;5075765;28;45585;-77
2022/03/03 03:18:15;;;;;;;;;77.25;58.50;;;;;11.65;57.84;101379.19;5077120;28;45639;-78
2022/03/03 03:20:43;;;;;;;;;79.00;58.75;;;;;11.70;57.57;101392.47;5076425;27;45486;-79
2022/03/03 03:23:10;;;;;;;;;78.75;59.75;;;;;11.73;57.63;101384.59;5075600;28;45265;-79
2022/03/03 03:25:37;;;;;;;;;80.00;56.75;;;;;11.74;57.72;101381.97;5076502;27;45409;-80
2022/03/03 03:28:07;;;;;;;;;73.00;55.50;;;;;11.75;57.69;101383.75;5078656;27;46557;-79
2022/03/03 03:30:32;;;;;;;;;79.50;57.75;;;;;11.76;57.55;101377.59;5077618;28;45390;-78
2022/03/03 03:32:58;;;;;;;;;80.25;57.00;;;;;11.78;57.73;101375.88;5076263;28;45517;-78
2022/03/03 03:35:25;;;;;;;;;76.50;56.00;;;;;11.74;57.74;101376.69;5077095;27;45252;-79
2022/03/03 03:37:50;;;;;;;;;76.00;58.00;;;;;11.72;57.62;101359.91;5076383;27;64612;-79
2022/03/03 03:40:16;;;;;;;;;77.25;59.00;;;;;11.77;57.77;101368.81;5076877;27;45313;-79
2022/03/03 03:42:41;;;;;;;;;71.50;53.75;;;;;11.82;57.60;101371.53;5075600;28;45274;-79
2022/03/03 03:45:08;;;;;;;;;70.75;53.25;;;;;11.80;57.74;101360.91;5057422;28;45394;-78
2022/03/03 03:47:34;;;;;;;;;78.25;57.25;;;;;11.84;57.90;101364.53;5076529;27;45869;-80
2022/03/03 03:50:02;;;;;;;;;67.75;54.50;;;;;11.86;57.77;101356.59;5075899;28;45335;-78
2022/03/03 03:52:28;;;;;;;;;78.50;59.00;;;;;11.87;57.91;101359.25;5075207;28;45398;-80
2022/03/03 03:54:53;;;;;;;;;73.25;53.75;;;;;11.86;57.88;101354.84;5092897;27;45530;-77
2022/03/03 03:57:19;;;;;;;;;72.75;55.75;;;;;11.87;57.89;101351.31;5075489;28;63586;-79
2022/03/03 03:59:44;;;;;;;;;71.50;55.75;;;;;11.88;57.95;101345.19;5074744;27;60865;-79
2022/03/03 04:02:10;;;;;;;;;78.00;58.50;;;;;11.89;58.03;101348.72;5076159;27;55592;-77
2022/03/03 04:04:35;;;;;;;;;72.25;56.00;;;;;11.89;58.06;101346.94;5076978;27;45378;-79
2022/03/03 04:07:02;;;;;;;;;73.25;58.25;;;;;11.87;58.06;101340.72;5076003;27;47545;-79
2022/03/03 04:09:28;;;;;;;;;77.00;57.75;;;;;11.88;57.79;101341.63;5076800;27;45490;-78
2022/03/03 04:11:53;;;;;;;;;73.00;58.00;;;;;11.92;58.13;101349.63;5075230;27;46102;-79
2022/03/03 04:14:18;;;;;;;;;71.25;53.25;;;;;11.93;58.07;101347.84;5075938;28;54420;-79
2022/03/03 04:16:44;;;;;;;;;72.00;53.75;;;;;11.89;58.00;101333.72;5091411;27;64657;-79
2022/03/03 04:19:09;;;;;;;;;73.00;56.50;;;;;11.93;58.03;101334.63;5075335;28;59676;-77
2022/03/03 04:21:35;;;;;;;;;68.75;52.75;;;;;11.96;58.01;101329.38;5075807;27;57053;-79
2022/03/03 04:24:00;;;;;;;;;69.25;55.00;;;;;11.90;58.27;101316.97;5076340;27;45506;-79
2022/03/03 04:26:25;;;;;;;;;73.00;55.75;;;;;11.96;58.25;101326.75;5073695;28;62862;-79
2022/03/03 04:28:51;;;;;;;;;69.25;53.00;;;;;11.98;58.32;101320.59;5075399;27;45446;-78
2022/03/03 04:31:16;;;;;;;;;72.00;53.75;;;;;11.98;58.62;101320.59;5075308;28;57579;-79
2022/03/03 04:33:45;;;;;;;;;71.50;51.50;;;;;11.99;58.39;101319.75;5073893;28;57650;-78
2022/03/03 04:36:14;;;;;;;;;65.75;47.00;;;;;12.01;58.73;101314.47;5074598;28;48969;-79
2022/03/03 04:38:39;;;;;;;;;61.00;48.25;;;;;12.00;58.74;101318.88;5091947;27;45281;-78
2022/03/03 04:41:08;;;;;;;;;56.75;47.00;;;;;12.03;59.00;101310.94;5074824;27;56726;-79
2022/03/03 04:43:33;;;;;;;;;60.75;46.25;;;;;12.03;59.13;101310.94;5076330;28;45212;-78
2022/03/03 04:45:59;;;;;;;;;59.50;44.75;;;;;12.04;59.38;101312.75;5075019;28;46778;-78
2022/03/03 04:48:29;;;;;;;;;59.25;46.75;;;;;12.05;59.30;101309.22;5075864;27;45348;-79
2022/03/03 04:50:56;;;;;;;;;56.50;44.50;;;;;12.04;59.33;101306.56;5067021;28;45397;-79
2022/03/03 04:53:21;;;;;;;;;58.50;45.00;;;;;12.03;59.51;101310.94;5075247;27;45478;-79
2022/03/03 04:55:47;;;;;;;;;66.25;50.25;;;;;12.04;59.29;101310.09;5075288;28;45881;-78
2022/03/03 04:58:12;;;;;;;;;69.75;50.25;;;;;12.02;59.42;101295.94;5074376;28;57314;-80
2022/03/03 05:00:37;;;;;;;;;68.25;51.00;;;;;12.01;59.32;101304.75;5075573;27;46360;-80
2022/03/03 05:03:04;;;;;;;;;60.75;47.75;;;;;12.00;59.69;101296.81;5075621;27;49898;-79
2022/03/03 05:05:30;;;;;;;;;65.75;48.50;;;;;11.98;59.55;101303.81;5074382;28;45614;-80
2022/03/03 05:07:55;;;;;;;;;66.00;51.00;;;;;11.96;59.83;101298.53;5075566;27;45249;-79
2022/03/03 05:10:22;;;;;;;;;65.75;51.00;;;;;11.95;59.54;101294.09;5072017;28;45314;-78
2022/03/03 05:12:47;;;;;;;;;65.75;53.00;;;;;11.95;59.56;101299.41;5074502;28;52627;-79
2022/03/03 05:15:13;;;;;;;;;70.50;52.75;;;;;11.95;59.75;101296.75;5075276;28;47204;-79
2022/03/03 05:17:38;;;;;;;;;65.50;52.75;;;;;11.95;59.54;101302.03;5076206;28;45373;-79
2022/03/03 05:20:04;;;;;;;;;72.00;53.00;;;;;11.98;59.71;101301.19;5075216;28;45420;-79
2022/03/03 05:22:34;;;;;;;;;72.25;53.25;;;;;11.99;59.45;101303.88;5075505;28;45512;-78
2022/03/03 05:25:01;;;;;;;;;65.75;50.25;;;;;12.01;59.72;101293.28;5073618;28;47829;-80
2022/03/03 05:27:26;;;;;;;;;73.75;55.00;;;;;12.02;59.51;101300.34;5075063;27;46022;-79
2022/03/03 05:29:52;;;;;;;;;67.25;52.00;;;;;12.03;59.72;101300.38;5074143;28;45828;-80
2022/03/03 05:32:19;;;;;;;;;62.25;49.75;;;;;12.03;59.94;101299.47;5075797;27;45587;-78
2022/03/03 05:34:44;;;;;;;;;64.25;50.25;;;;;12.03;59.82;101302.13;5075448;28;47394;-79
2022/03/03 05:37:09;;;;;;;;;63.25;47.50;;;;;12.01;60.02;101302.13;5090303;27;58463;-79
2022/03/03 05:39:35;;;;;;;;;57.75;47.00;;;;;12.02;60.11;101300.34;5074965;28;57732;-79
2022/03/03 05:42:00;;;;;;;;;57.50;42.00;;;;;12.03;60.33;101296.84;5057445;28;45343;-79
2022/03/03 05:44:27;;;;;;;;;56.25;42.50;;;;;12.11;60.36;101302.25;5077397;28;47115;-78
2022/03/03 05:46:55;;;;;;;;;59.75;44.25;;;;;12.10;60.46;101300.47;5078687;27;45517;-79
2022/03/03 05:49:20;;;;;;;;;55.50;40.75;;;;;12.13;60.49;101297.84;5093768;27;45567;-78
2022/03/03 05:51:46;;;;;;;;;53.50;40.25;;;;;12.14;60.57;101299.59;5076787;28;45454;-79
2022/03/03 05:54:11;;;;;;;;;48.50;40.50;;;;;12.15;60.71;101293.47;5078264;27;61617;-78
2022/03/03 05:56:39;;;;;;;;;55.50;39.00;;;;;12.15;60.74;101294.34;5059671;28;55232;-79
2022/03/03 05:59:08;;;;;;;;;52.50;41.00;;;;;12.13;60.94;101292.53;5056616;28;45629;-79
2022/03/03 06:01:35;;;;;;;;;49.50;38.50;;;;;12.14;61.12;101297.84;5074836;28;45516;-79
2022/03/03 06:04:01;;;;;;;;;50.50;38.00;;;;;12.18;61.07;101296.13;5076959;28;46605;-79
2022/03/03 06:06:34;;;;;;;;;51.00;38.50;;;;;12.17;61.27;101289.97;5077795;28;45743;-79
2022/03/03 06:09:05;;;;;;;;;45.25;37.25;;;;;12.20;61.19;101294.41;5078604;27;45303;-78
2022/03/03 06:11:31;;;;;;;;;44.00;38.25;;;;;12.22;61.36;101303.25;5078630;27;45423;-79
2022/03/03 06:14:08;;;;;;;;;49.25;40.00;;;;;12.23;61.50;101302.38;5077616;27;46046;-80
2022/03/03 06:16:33;;;;;;;;;45.50;38.50;;;;;12.23;61.40;101292.66;5078341;27;45452;-79
2022/03/03 06:18:59;;;;;;;;;45.75;37.50;;;;;12.24;61.65;101296.19;5076804;27;45714;-79
2022/03/03 06:21:26;;;;;;;;;49.25;36.50;;;;;12.21;61.37;101285.59;5078711;27;45614;-79
2022/03/03 06:23:51;;;;;;;;;47.50;38.25;;;;;12.21;61.82;101288.25;5077599;27;45731;-79
2022/03/03 06:26:18;;;;;;;;;51.00;39.00;;;;;12.26;61.54;101299.78;5077308;28;45528;-79
2022/03/03 06:28:43;;;;;;;;;51.25;38.50;;;;;12.27;61.58;101304.19;5079920;27;45540;-79
2022/03/03 06:31:09;;;;;;;;;51.50;39.25;;;;;12.26;61.70;101305.97;5079036;27;45517;-79
2022/03/03 06:33:35;;;;;;;;;46.50;38.75;;;;;12.25;61.82;101298.88;5076176;28;46214;-81
2022/03/03 06:36:00;;;;;;;;;46.50;37.00;;;;;12.24;61.42;101293.56;5077664;28;45508;-80
2022/03/03 06:38:49;;;;;;;;;48.00;38.50;;;;;12.30;61.78;101309.50;5071659;28;54548;-80
2022/03/03 06:41:14;;;;;;;;;47.25;40.25;;;;;12.26;62.03;101300.66;5076361;28;45378;-81
2022/03/03 06:43:41;;;;;;;;;61.25;47.75;;;;;12.29;61.56;101297.16;5075790;28;62206;-80
2022/03/03 06:46:06;;;;;;;;;60.75;47.50;;;;;12.32;61.60;101305.13;5076042;27;45516;-79
2022/03/03 06:49:35;;;;;;;;;59.50;46.00;;;;;12.34;61.40;101308.69;5068569;28;53669;-79
2022/03/03 06:52:08;;;;;;;;;62.25;46.00;;;;;12.36;61.79;101314.91;5073048;28;45429;-80
2022/03/03 06:54:44;;;;;;;;;58.75;46.50;;;;;12.34;61.51;101308.69;5071083;28;45836;-79
2022/03/03 06:57:11;;;;;;;;;56.25;43.75;;;;;12.34;62.24;101311.31;5073583;28;45701;-79
2022/03/03 06:59:44;;;;;;;;;52.00;39.50;;;;;12.38;62.97;101315.78;5076118;28;45556;-77
2022/03/03 07:02:10;;;;;;;;;53.25;42.75;;;;;12.36;64.22;101316.63;5076301;27;45492;-77
2022/03/03 07:04:36;;;;;;;;;53.25;39.75;;;;;12.34;64.09;101319.28;5070423;28;57793;-77
2022/03/03 07:07:03;;;;;;;;;53.00;43.25;;;;;12.35;64.13;101325.44;5072856;27;45521;-78
2022/03/03 07:09:29;;;;;;;;;54.00;40.25;;;;;12.31;64.58;101308.66;5077039;27;45271;-77
2022/03/03 07:11:54;;;;;;;;;49.50;41.25;;;;;12.32;65.09;101315.72;5077243;27;45225;-77
2022/03/03 07:14:21;;;;;;;;;50.25;40.50;;;;;12.24;65.63;101314.72;5058255;28;59086;-78
2022/03/03 07:16:57;;;;;;;;;49.75;37.25;;;;;12.24;65.10;101322.69;5071901;28;45477;-78
2022/03/03 07:19:41;;;;;;;;;56.50;41.75;;;;;12.18;65.54;101317.31;5076862;27;45558;-77
2022/03/03 07:22:25;;;;;;;;;53.75;42.25;;;;;12.15;65.66;101327.88;5074189;28;45526;-77
2022/03/03 07:25:10;;;;;;;;;54.50;40.75;;;;;12.15;64.59;101320.84;5073723;28;45544;-79
2022/03/03 07:27:36;;;;;;;;;54.75;40.75;;;;;12.19;64.41;101319.09;5075903;28;45584;-80
2022/03/03 07:30:10;;;;;;;;;56.00;41.50;;;;;12.26;64.20;101319.19;5058767;28;45343;-79
2022/03/03 07:33:33;;;;;;;;;55.00;41.75;;;;;12.34;63.53;101316.63;5075655;27;45560;-79
2022/03/03 07:35:59;;;;;;;;;49.25;39.00;;;;;12.41;63.60;101314.94;5074462;28;46843;-79
2022/03/03 07:42:09;;;;;;;;;55.00;41.75;;;;;12.57;63.50;101307.19;5071370;28;45543;-79
2022/03/03 07:44:34;;;;;;;;;51.50;41.00;;;;;12.62;63.08;101315.16;5072328;28;45578;-79
2022/03/03 07:46:59;;;;;;;;;57.75;42.25;;;;;12.70;63.07;101313.50;5057552;28;47338;-80
2022/03/03 07:49:41;;;;;;;;;55.75;42.75;;;;;12.76;62.75;101316.19;5055949;28;45556;-80
2022/03/03 07:52:07;;;;;;;;;59.25;45.25;;;;;12.79;62.90;101307.41;5197874;22;45781;-80
2022/03/03 07:54:32;;;;;;;;;59.00;45.00;;;;;12.86;62.78;101317.19;5094716;27;45578;-80
2022/03/03 07:56:58;;;;;;;;;54.25;41.25;;;;;12.85;62.62;101303.03;5089509;27;64689;-79
2022/03/03 07:59:35;;;;;;;;;54.25;44.00;;;;;12.94;62.60;101320.75;5095072;27;45554;-80
2022/03/03 08:02:04;;;;;;;;;57.00;40.75;;;;;12.96;62.62;101310.19;5093302;27;45417;-80
2022/03/03 08:04:32;;;;;;;;;50.25;42.50;;;;;13.03;62.56;101317.31;5089379;27;45574;-81
2022/03/03 08:07:08;;;;;;;;;55.00;43.00;;;;;13.02;62.38;101303.19;5089457;27;47500;-79
2022/03/03 08:09:33;;;;;;;;;55.75;43.25;;;;;13.11;62.42;101313.00;5094005;27;45365;-80
2022/03/03 08:12:02;;;;;;;;;53.50;39.00;;;;;13.17;62.11;101314.81;5089127;27;45220;-80
2022/03/03 08:14:29;;;;;;;;;55.50;39.75;;;;;13.22;62.21;101310.47;5094312;27;45358;-81
2022/03/03 08:16:54;;;;;;;;;56.00;43.75;;;;;13.25;62.12;101308.69;5078360;27;47359;-81
2022/03/03 08:19:19;;;;;;;;;48.75;40.00;;;;;13.31;62.13;101314.03;5093015;27;54264;-81
2022/03/03 08:21:45;;;;;;;;;55.50;42.25;;;;;13.35;62.00;101310.53;5092245;27;53571;-82
2022/03/03 08:24:13;;;;;;;;;55.50;42.00;;;;;13.39;61.93;101314.13;5088091;27;45558;-81
2022/03/03 08:26:39;;;;;;;;;50.75;40.25;;;;;13.34;61.73;101298.16;5093719;27;50143;-79
2022/03/03 08:29:05;;;;;;;;;51.50;42.25;;;;;13.47;61.85;101306.19;5094245;27;45360;-80
2022/03/03 08:31:40;;;;;;;;;55.00;42.75;;;;;13.51;61.57;101308.00;5095106;27;55684;-80
2022/03/03 08:34:12;;;;;;;;;54.75;42.00;;;;;13.50;61.81;101293.84;5092716;27;45344;-81
2022/03/03 08:36:45;;;;;;;;;55.50;42.00;;;;;13.60;61.80;101303.66;5090245;27;47599;-80
2022/03/03 08:39:12;;;;;;;;;51.50;42.00;;;;;13.64;61.60;101293.94;5085720;27;45464;-79
2022/03/03 08:41:38;;;;;;;;;58.00;43.00;;;;;13.67;61.38;101299.25;5089160;27;45556;-79
2022/03/03 08:44:04;;;;;;;;;54.25;42.50;;;;;13.73;61.36;101301.94;5089105;27;45502;-79
2022/03/03 08:46:33;;;;;;;;;52.00;42.00;;;;;13.76;61.58;101304.63;5064475;27;46207;-77
2022/03/03 08:49:00;;;;;;;;;55.25;43.00;;;;;13.80;61.29;101310.84;5066266;27;45868;-78
2022/03/03 08:51:27;;;;;;;;;54.75;44.25;;;;;13.80;61.28;101309.06;5063753;27;45817;-78
2022/03/03 08:53:53;;;;;;;;;45.50;36.75;;;;;13.89;61.02;101321.50;5061280;27;45559;-76
2022/03/03 08:56:18;;;;;;;;;53.75;42.50;;;;;13.93;61.16;101319.75;5084553;27;46663;-75
2022/03/03 08:58:44;;;;;;;;;52.25;39.00;;;;;13.96;60.70;101317.13;5093218;27;63133;-80
2022/03/03 09:01:09;;;;;;;;;53.25;40.00;;;;;13.97;60.69;101318.88;5073227;27;45343;-81
2022/03/03 09:03:35;;;;;;;;;49.00;39.50;;;;;14.00;60.75;101319.78;5093508;27;45766;-77
2022/03/03 09:06:01;;;;;;;;;52.25;41.00;;;;;13.97;60.72;101313.59;5094938;27;59147;-78
2022/03/03 09:08:26;;;;;;;;;55.75;43.25;;;;;14.06;60.97;101324.22;5094359;27;45596;-79
2022/03/03 09:10:51;;;;;;;;;52.50;40.50;;;;;14.14;60.77;101326.03;5095317;27;45460;-78
2022/03/03 09:13:17;;;;;;;;;54.25;43.00;;;;;14.19;60.49;101325.19;5092975;27;56606;-79
2022/03/03 09:15:42;;;;;;;;;54.00;43.00;;;;;14.22;60.44;101323.44;5093846;27;62613;-78
2022/03/03 09:18:08;;;;;;;;;54.75;42.75;;;;;14.23;60.47;101311.03;5079775;27;61454;-80
2022/03/03 09:20:33;;;;;;;;;57.25;44.25;;;;;14.30;60.34;101316.38;5088807;27;45610;-78
2022/03/03 09:22:59;;;;;;;;;55.75;42.75;;;;;14.29;60.35;101309.28;5093790;27;45463;-78
2022/03/03 09:25:24;;;;;;;;;53.75;42.25;;;;;14.36;60.01;101321.69;5093077;27;47333;-78
2022/03/03 09:27:50;;;;;;;;;56.25;42.25;;;;;14.40;60.23;101319.94;5092484;27;45425;-80
2022/03/03 09:30:15;;;;;;;;;53.50;41.00;;;;;14.44;59.94;101313.75;5096568;27;45528;-77
2022/03/03 09:32:41;;;;;;;;;53.00;41.50;;;;;14.50;59.83;101315.59;5093161;27;52586;-78
2022/03/03 09:35:06;;;;;;;;;52.25;43.00;;;;;14.54;59.65;101304.97;5093635;27;52923;-79
2022/03/03 09:37:32;;;;;;;;;55.00;43.50;;;;;14.61;59.68;101311.19;5098432;27;45486;-79
2022/03/03 09:39:57;;;;;;;;;60.75;45.50;;;;;14.70;59.43;101315.59;5101125;27;52255;-76
2022/03/03 09:42:22;;;;;;;;;54.00;41.75;;;;;14.76;59.40;101315.66;5096911;27;54965;-78
2022/03/03 09:44:48;;;;;;;;;54.50;43.50;;;;;14.82;59.50;101311.22;5097699;27;63796;-80
2022/03/03 09:47:15;;;;;;;;;49.75;40.25;;;;;14.82;59.19;101303.25;5096196;27;62909;-82
2022/03/03 09:49:41;;;;;;;;;57.50;43.50;;;;;14.89;59.34;101302.34;5078841;27;45590;-80
2022/03/03 09:52:16;;;;;;;;;57.50;44.50;;;;;14.92;58.88;101290.84;5097602;27;45584;-80
2022/03/03 09:54:42;;;;;;;;;54.75;41.50;;;;;15.03;59.05;101299.72;5096737;27;47828;-78
2022/03/03 09:57:08;;;;;;;;;51.00;40.00;;;;;15.08;58.77;101302.38;5096597;27;45504;-76
2022/03/03 09:59:33;;;;;;;;;54.75;43.00;;;;;15.14;58.62;101307.69;5096161;27;55568;-76
2022/03/03 10:02:05;;;;;;;;;57.50;43.00;;;;;15.18;58.45;101309.47;5096707;27;55917;-79
2022/03/03 10:04:31;;;;;;;;;61.75;47.00;;;;;15.14;58.22;101311.22;5089203;27;47525;-79
2022/03/03 10:06:56;;;;;;;;;58.50;46.50;;;;;15.12;58.15;101309.44;5097091;27;45516;-78
2022/03/03 10:09:22;;;;;;;;;58.25;46.25;;;;;15.01;58.24;101301.47;5078489;27;45925;-78
2022/03/03 10:11:47;;;;;;;;;52.75;40.00;;;;;14.99;58.26;101311.22;5097074;27;53447;-78
2022/03/03 10:14:12;;;;;;;;;53.25;41.00;;;;;14.98;58.68;101308.56;5098131;27;47678;-77
2022/03/03 10:16:45;;;;;;;;;49.50;41.25;;;;;14.99;58.71;101305.91;5096846;27;45404;-76
2022/03/03 10:19:11;;;;;;;;;54.50;42.00;;;;;15.10;58.69;101305.91;5076594;27;45548;-78
2022/03/03 10:21:38;;;;;;;;;54.50;41.75;;;;;15.17;58.55;101303.22;5095591;27;45547;-79
2022/03/03 10:24:19;;;;;;;;;56.00;43.25;;;;;15.24;58.45;101297.94;5080668;27;46783;-79
2022/03/03 10:26:44;;;;;;;;;58.25;43.50;;;;;15.33;58.20;101305.88;5095034;27;46476;-80
2022/03/03 10:29:19;;;;;;;;;59.75;46.00;;;;;15.34;57.83;101297.94;5095586;27;45428;-80
2022/03/03 10:31:46;;;;;;;;;56.75;44.50;;;;;15.36;57.72;101296.13;5098901;27;45366;-78
2022/03/03 10:34:21;;;;;;;;;53.75;41.25;;;;;15.40;57.89;101295.25;5095459;27;47341;-79
2022/03/03 10:37:02;;;;;;;;;57.25;42.00;;;;;15.43;57.80;101302.31;5095368;27;45513;-80
2022/03/03 10:39:46;;;;;;;;;53.00;40.75;;;;;15.40;57.51;101302.34;5095674;27;45422;-78
2022/03/03 10:42:22;;;;;;;;;54.50;43.00;;;;;15.40;58.01;101302.34;5091523;27;45640;-77
2022/03/03 10:44:48;;;;;;;;;53.75;41.25;;;;;15.45;58.16;101305.91;5096372;27;46839;-78
2022/03/03 10:47:15;;;;;;;;;51.00;40.25;;;;;15.52;57.52;101304.09;5096990;27;45496;-78
2022/03/03 10:49:43;;;;;;;;;54.75;42.00;;;;;15.59;57.44;101296.09;5096074;27;45279;-77
2022/03/03 10:52:10;;;;;;;;;51.75;41.25;;;;;15.68;57.75;101300.56;5095563;27;45695;-78
2022/03/03 10:54:58;;;;;;;;;49.00;40.25;;;;;15.75;57.66;101296.09;5096118;27;47807;-78
2022/03/03 10:57:52;;;;;;;;;48.50;41.00;;;;;15.77;57.16;101291.66;5094493;27;45492;-78
2022/03/03 11:00:19;;;;;;;;;50.50;40.25;;;;;15.80;57.07;101294.31;5092747;27;45455;-78
2022/03/03 11:02:49;;;;;;;;;49.75;38.75;;;;;15.81;57.12;101285.41;5097387;27;45480;-78
2022/03/03 11:05:15;;;;;;;;;44.50;37.00;;;;;15.88;57.38;101293.41;5091251;27;46571;-78
2022/03/03 11:07:42;;;;;;;;;45.00;36.75;;;;;15.86;57.11;101288.94;5097555;27;45351;-78
2022/03/03 11:10:12;;;;;;;;;50.50;40.00;;;;;15.88;57.03;101289.84;5098259;27;45398;-77
2022/03/03 11:12:39;;;;;;;;;50.75;41.50;;;;;15.87;56.52;101290.72;5097394;27;45528;-78
2022/03/03 11:15:05;;;;;;;;;51.75;42.50;;;;;15.81;56.46;101288.97;5091848;27;47990;-77